Time;durP1;ratioP1;P1;durP2;ratioP2;P2;SDS_P1;SDS_P2;PMS_P1;PMS_P2;Temp;Humidity;BMP_temperature;BMP_pressure;BME280_temperature;BME280_humidity;BME280_pressure;Samples;Min_cycle;Max_cycle;Signal;HPM_P1;HPM_P2
2023/02/07 00:01:38;;;;;;;;;;;;;;;21.60;38.44;103629.88;7250580;19;153133;-57
2023/02/07 00:04:05;;;;;;;;;;;;;;;21.60;38.58;103637.47;7250837;19;154502;-57
2023/02/07 00:06:33;;;;;;;;;;;;;;;21.58;38.59;103631.22;7249624;19;154059;-57
2023/02/07 00:09:02;;;;;;;;;;;;;;;21.53;38.56;103637.59;7251626;19;152889;-57
2023/02/07 00:11:29;;;;;;;;;;;;;;;21.53;39.13;103637.59;7251772;19;154234;-57
2023/02/07 00:13:57;;;;;;;;;;;;;;;21.53;39.21;103639.59;7256729;19;152935;-57
2023/02/07 00:16:24;;;;;;;;;;;;;;;21.48;39.42;103645.09;7259143;19;153037;-57
2023/02/07 00:18:52;;;;;;;;;;;;;;;21.47;39.44;103643.38;7256962;19;152524;-58
2023/02/07 00:21:22;;;;;;;;;;;;;;;21.43;39.63;103643.03;7261244;19;152024;-57
2023/02/07 00:23:49;;;;;;;;;;;;;;;21.40;40.00;103629.44;7255009;19;152950;-57
2023/02/07 00:26:16;;;;;;;;;;;;;;;21.35;39.62;103637.78;7254647;19;153834;-58
2023/02/07 00:28:44;;;;;;;;;;;;;;;21.35;39.93;103637.78;7258686;19;154067;-59
2023/02/07 00:31:14;;;;;;;;;;;;;;;21.30;40.25;103632.91;7256107;19;153275;-57
2023/02/07 00:33:42;;;;;;;;;;;;;;;21.29;40.00;103636.84;7259787;19;152829;-57
2023/02/07 00:36:11;;;;;;;;;;;;;;;21.27;39.96;103635.34;7256223;19;152727;-57
2023/02/07 00:38:41;;;;;;;;;;;;;;;21.28;39.80;103631.44;7255728;19;154023;-57
2023/02/07 00:41:08;;;;;;;;;;;;;;;21.23;39.95;103631.34;7255740;19;153386;-58
2023/02/07 00:43:35;;;;;;;;;;;;;;;21.26;39.80;103625.22;7261344;19;153369;-58
2023/02/07 00:46:05;;;;;;;;;;;;;;;21.25;39.76;103629.16;7253162;19;153120;-58
2023/02/07 00:48:32;;;;;;;;;;;;;;;21.23;39.90;103617.28;7256504;19;154319;-58
2023/02/07 00:50:59;;;;;;;;;;;;;;;21.22;39.55;103626.81;7252965;19;153996;-58
2023/02/07 00:53:27;;;;;;;;;;;;;;;21.20;39.93;103631.84;7253544;19;153784;-58
2023/02/07 00:55:57;;;;;;;;;;;;;;;21.16;39.58;103625.88;7254701;19;154405;-58
2023/02/07 00:58:24;;;;;;;;;;;;;;;21.13;40.04;103617.91;7251764;19;154453;-58
2023/02/07 01:00:51;;;;;;;;;;;;;;;21.15;39.88;103617.66;7253213;19;153729;-58
2023/02/07 01:03:18;;;;;;;;;;;;;;;21.09;39.59;103615.81;7255928;19;152672;-58
2023/02/07 01:05:46;;;;;;;;;;;;;;;21.07;39.71;103621.69;7259693;19;153160;-58
2023/02/07 01:08:12;;;;;;;;;;;;;;;21.08;39.70;103617.75;7255063;19;154252;-58
2023/02/07 01:10:40;;;;;;;;;;;;;;;21.02;39.88;103613.16;7252382;19;152675;-58
2023/02/07 01:13:07;;;;;;;;;;;;;;;21.05;39.91;103611.78;7254012;19;154232;-58
2023/02/07 01:15:36;;;;;;;;;;;;;;;21.06;39.75;103617.16;7254128;19;152992;-58
2023/02/07 01:18:04;;;;;;;;;;;;;;;21.01;39.79;103613.38;7255204;19;153119;-58
2023/02/07 01:20:31;;;;;;;;;;;;;;;20.99;40.00;103612.75;7251084;19;154074;-58
2023/02/07 01:22:58;;;;;;;;;;;;;;;20.98;40.27;103613.88;7253662;19;154990;-58
2023/02/07 01:25:25;;;;;;;;;;;;;;;20.94;40.19;103612.69;7259049;19;153256;-58
2023/02/07 01:27:52;;;;;;;;;;;;;;;20.92;40.05;103612.06;7254398;19;154393;-58
2023/02/07 01:30:19;;;;;;;;;;;;;;;20.88;40.30;103611.69;7251630;19;152401;-59
2023/02/07 01:32:46;;;;;;;;;;;;;;;20.86;39.95;103623.16;7255629;19;153314;-59
2023/02/07 01:35:13;;;;;;;;;;;;;;;20.89;40.38;103618.19;7254526;19;153325;-59
2023/02/07 01:37:40;;;;;;;;;;;;;;;20.82;40.49;103612.66;7253277;19;154131;-59
2023/02/07 01:40:07;;;;;;;;;;;;;;;20.82;40.56;103615.47;7255125;19;153117;-59
2023/02/07 01:42:34;;;;;;;;;;;;;;;20.77;40.38;103604.97;7257275;19;154066;-59
2023/02/07 01:45:05;;;;;;;;;;;;;;;20.78;40.46;103615.13;7257158;19;153873;-59
2023/02/07 01:47:33;;;;;;;;;;;;;;;20.77;40.37;103612.53;7275809;19;153948;-59
2023/02/07 01:50:00;;;;;;;;;;;;;;;20.73;40.49;103622.56;7254997;19;153266;-59
2023/02/07 01:52:29;;;;;;;;;;;;;;;20.70;40.37;103617.44;7253882;19;154138;-59
2023/02/07 01:55:01;;;;;;;;;;;;;;;20.67;40.45;103612.34;7251701;19;156854;-59
2023/02/07 01:57:27;;;;;;;;;;;;;;;20.65;40.74;103609.75;7251096;19;153026;-59
2023/02/07 01:59:56;;;;;;;;;;;;;;;20.63;40.91;103616.69;7252664;19;153425;-59
2023/02/07 02:02:24;;;;;;;;;;;;;;;20.65;40.51;103617.31;7252748;19;152749;-59
2023/02/07 02:04:53;;;;;;;;;;;;;;;20.59;40.55;103604.25;7251448;19;154435;-59
2023/02/07 02:07:20;;;;;;;;;;;;;;;20.56;40.88;103614.03;7252096;19;154323;-58
2023/02/07 02:09:47;;;;;;;;;;;;;;;20.56;40.63;103621.59;7266360;19;153253;-59
2023/02/07 02:12:14;;;;;;;;;;;;;;;20.55;41.02;103612.31;7252274;19;154222;-58
2023/02/07 02:14:44;;;;;;;;;;;;;;;20.53;40.81;103614.53;7253530;19;152499;-58
2023/02/07 02:17:14;;;;;;;;;;;;;;;20.51;40.92;103607.44;7248578;19;151918;-58
2023/02/07 02:19:44;;;;;;;;;;;;;;;20.45;40.95;103611.19;7250664;19;153069;-58
2023/02/07 02:22:14;;;;;;;;;;;;;;;20.41;40.83;103610.84;7250412;19;153426;-59
2023/02/07 02:24:52;;;;;;;;;;;;;;;20.38;40.86;103608.53;7251752;19;155401;-59
2023/02/07 02:27:19;;;;;;;;;;;;;;;20.37;41.24;103607.66;7251337;19;153181;-59
2023/02/07 02:29:49;;;;;;;;;;;;;;;20.34;41.14;103605.34;7253432;19;154058;-59
2023/02/07 02:32:22;;;;;;;;;;;;;;;20.33;41.30;103609.25;7258425;19;154671;-59
2023/02/07 02:34:55;;;;;;;;;;;;;;;20.33;41.00;103619.63;7253629;19;154210;-59
2023/02/07 02:37:25;;;;;;;;;;;;;;;20.30;41.09;103604.13;7250581;19;153084;-59
2023/02/07 02:39:53;;;;;;;;;;;;;;;20.26;41.59;103607.63;7252029;19;154783;-59
2023/02/07 02:42:20;;;;;;;;;;;;;;;20.23;41.31;103606.16;7250997;19;154413;-60
2023/02/07 02:44:50;;;;;;;;;;;;;;;20.24;41.44;103609.81;7250822;19;154409;-59
2023/02/07 02:47:19;;;;;;;;;;;;;;;20.21;41.36;103608.34;7249150;19;153598;-58
2023/02/07 02:49:46;;;;;;;;;;;;;;;20.19;41.78;103606.88;7252493;19;154643;-58
2023/02/07 02:52:12;;;;;;;;;;;;;;;20.16;41.78;103599.78;7248806;19;153865;-59
2023/02/07 02:54:39;;;;;;;;;;;;;;;20.13;41.42;103610.63;7260347;19;154351;-59
2023/02/07 02:57:14;;;;;;;;;;;;;;;20.17;41.57;103603.47;7250888;19;154579;-59
2023/02/07 02:59:52;;;;;;;;;;;;;;;20.17;41.37;103603.47;7251148;19;153006;-59
2023/02/07 03:02:21;;;;;;;;;;;;;;;20.11;41.75;103601.63;7254307;19;153037;-58
2023/02/07 03:04:51;;;;;;;;;;;;;;;20.09;41.64;103601.84;7253455;19;154527;-58
2023/02/07 03:07:30;;;;;;;;;;;;;;;20.07;41.69;103590.03;7249127;19;153176;-58
2023/02/07 03:09:57;;;;;;;;;;;;;;;20.04;41.82;103582.06;7253177;19;153131;-58
2023/02/07 03:12:26;;;;;;;;;;;;;;;20.07;41.58;103575.97;7249365;19;153183;-59
2023/02/07 03:14:59;;;;;;;;;;;;;;;20.05;41.86;103586.59;7252734;19;153448;-59
2023/02/07 03:17:30;;;;;;;;;;;;;;;20.02;42.11;103583.41;7256717;19;152560;-59
2023/02/07 03:20:01;;;;;;;;;;;;;;;19.99;41.84;103584.72;7251358;19;153632;-59
2023/02/07 03:22:28;;;;;;;;;;;;;;;19.97;41.89;103576.56;7248948;19;153902;-59
2023/02/07 03:24:57;;;;;;;;;;;;;;;19.97;41.81;103587.78;7250868;19;154670;-59
2023/02/07 03:27:26;;;;;;;;;;;;;;;19.95;42.00;103598.38;7247438;19;153541;-58
2023/02/07 03:29:56;;;;;;;;;;;;;;;19.95;42.05;103592.78;7251056;19;152926;-58
2023/02/07 03:32:26;;;;;;;;;;;;;;;19.93;42.09;103600.59;7249105;19;154208;-59
2023/02/07 03:34:57;;;;;;;;;;;;;;;19.91;42.06;103593.50;7251213;19;153559;-58
2023/02/07 03:37:26;;;;;;;;;;;;;;;19.91;41.86;103596.31;7254256;19;154153;-59
2023/02/07 03:39:53;;;;;;;;;;;;;;;19.90;41.96;103589.84;7250722;19;153296;-58
2023/02/07 03:42:21;;;;;;;;;;;;;;;19.89;42.02;103592.91;7249749;19;153423;-58
2023/02/07 03:44:50;;;;;;;;;;;;;;;19.85;41.89;103594.47;7253022;19;154037;-58
2023/02/07 03:47:18;;;;;;;;;;;;;;;19.82;42.13;103595.78;7254622;19;152842;-58
2023/02/07 03:49:45;;;;;;;;;;;;;;;19.82;41.61;103598.59;7258254;19;154654;-58
2023/02/07 03:52:11;;;;;;;;;;;;;;;19.82;41.68;103594.94;7252907;19;152960;-58
2023/02/07 03:54:38;;;;;;;;;;;;;;;19.80;41.71;103595.19;7257784;19;153544;-58
2023/02/07 03:57:05;;;;;;;;;;;;;;;19.80;41.54;103577.50;7256762;19;153970;-59
2023/02/07 03:59:32;;;;;;;;;;;;;;;19.79;41.67;103584.19;7263512;19;155313;-58
2023/02/07 04:01:58;;;;;;;;;;;;;;;19.75;41.97;103580.16;7256665;19;153352;-58
2023/02/07 04:04:26;;;;;;;;;;;;;;;19.76;41.54;103579.91;7256435;19;154258;-58
2023/02/07 04:06:53;;;;;;;;;;;;;;;19.73;41.92;103573.94;7254988;19;153505;-58
2023/02/07 04:09:20;;;;;;;;;;;;;;;19.76;41.55;103573.47;7258336;19;154235;-58
2023/02/07 04:11:48;;;;;;;;;;;;;;;19.71;41.98;103562.13;7254499;19;154623;-58
2023/02/07 04:14:15;;;;;;;;;;;;;;;19.72;41.97;103572.22;7256210;19;153432;-58
2023/02/07 04:16:41;;;;;;;;;;;;;;;19.67;42.08;103572.94;7256260;19;154693;-58
2023/02/07 04:19:08;;;;;;;;;;;;;;;19.67;42.16;103564.50;7256873;19;153383;-58
2023/02/07 04:21:35;;;;;;;;;;;;;;;19.67;41.70;103563.69;7264123;19;153389;-58
2023/02/07 04:24:04;;;;;;;;;;;;;;;19.62;41.88;103561.59;7256331;19;154916;-58
2023/02/07 04:26:31;;;;;;;;;;;;;;;19.61;42.02;103585.13;7254740;19;152052;-58
2023/02/07 04:28:57;;;;;;;;;;;;;;;19.62;42.46;103600.88;7255364;19;154504;-58
2023/02/07 04:31:24;;;;;;;;;;;;;;;19.61;42.61;103598.28;7249800;19;154246;-58
2023/02/07 04:33:51;;;;;;;;;;;;;;;19.60;42.55;103589.00;7258034;19;153004;-58
2023/02/07 04:36:18;;;;;;;;;;;;;;;19.56;42.38;103593.38;7253925;19;154132;-59
2023/02/07 04:38:45;;;;;;;;;;;;;;;19.52;42.57;103603.38;7255872;19;153594;-58
2023/02/07 04:41:11;;;;;;;;;;;;;;;19.52;42.59;103597.75;7257663;19;154066;-59
2023/02/07 04:43:38;;;;;;;;;;;;;;;19.50;42.73;103614.81;7262066;19;153779;-58
2023/02/07 04:46:06;;;;;;;;;;;;;;;19.51;42.52;103607.25;7254463;19;152578;-58
2023/02/07 04:48:33;;;;;;;;;;;;;;;19.47;42.42;103606.88;7254340;19;152191;-59
2023/02/07 04:50:59;;;;;;;;;;;;;;;19.45;42.39;103620.28;7252771;19;153404;-58
2023/02/07 04:53:26;;;;;;;;;;;;;;;19.46;42.62;103610.78;7254352;19;153131;-58
2023/02/07 04:55:53;;;;;;;;;;;;;;;19.44;42.50;103618.56;7252842;19;153935;-58
2023/02/07 04:58:23;;;;;;;;;;;;;;;19.43;42.42;103608.44;7252648;19;156258;-59
2023/02/07 05:00:51;;;;;;;;;;;;;;;19.40;42.55;103608.88;7254686;19;152360;-58
2023/02/07 05:03:17;;;;;;;;;;;;;;;19.40;42.63;103602.41;7257292;19;153438;-58
2023/02/07 05:05:44;;;;;;;;;;;;;;;19.42;42.46;103601.09;7259382;19;154467;-58
2023/02/07 05:08:12;;;;;;;;;;;;;;;19.40;42.42;103608.00;7251501;19;156281;-58
2023/02/07 05:10:39;;;;;;;;;;;;;;;19.38;42.54;103604.59;7255395;19;154402;-58
2023/02/07 05:13:06;;;;;;;;;;;;;;;19.35;42.44;103607.91;7256187;19;153760;-59
2023/02/07 05:15:33;;;;;;;;;;;;;;;19.37;42.49;103597.28;7254060;19;152521;-58
2023/02/07 05:18:00;;;;;;;;;;;;;;;19.35;42.16;103591.91;7254334;19;153285;-58
2023/02/07 05:20:26;;;;;;;;;;;;;;;19.33;42.35;103591.28;7254264;19;153132;-58
2023/02/07 05:22:53;;;;;;;;;;;;;;;19.38;42.73;103593.41;7255380;19;153746;-59
2023/02/07 05:25:20;;;;;;;;;;;;;;;19.41;42.49;103593.75;7254708;19;154694;-58
2023/02/07 05:27:47;;;;;;;;;;;;;;;19.42;42.80;103594.63;7257583;19;153703;-58
2023/02/07 05:30:13;;;;;;;;;;;;;;;19.50;42.47;103595.19;7252925;19;153280;-58
2023/02/07 05:35:10;;;;;;;;;;;;;;;19.64;42.57;103597.81;7253965;19;154699;-58
2023/02/07 05:37:37;;;;;;;;;;;;;;;19.69;42.48;103606.34;7251374;19;153039;-58
2023/02/07 05:40:04;;;;;;;;;;;;;;;19.73;42.62;103607.59;7253871;19;152709;-58
2023/02/07 05:42:31;;;;;;;;;;;;;;;19.77;42.82;103595.66;7253424;19;153021;-58
2023/02/07 05:44:57;;;;;;;;;;;;;;;19.82;42.33;103593.00;7251486;19;153214;-58
2023/02/07 05:47:24;;;;;;;;;;;;;;;19.88;42.66;103592.03;7259755;19;152544;-58
2023/02/07 05:49:52;;;;;;;;;;;;;;;19.92;42.79;103584.84;7254591;19;153535;-58
2023/02/07 05:52:18;;;;;;;;;;;;;;;19.98;42.99;103586.72;7253341;19;153077;-58
2023/02/07 05:54:48;;;;;;;;;;;;;;;20.05;42.78;103586.59;7255304;19;153642;-58
2023/02/07 05:57:17;;;;;;;;;;;;;;;20.09;42.73;103576.59;7252689;19;154064;-58
2023/02/07 05:59:44;;;;;;;;;;;;;;;20.15;42.56;103578.44;7251435;19;153028;-58
2023/02/07 06:02:10;;;;;;;;;;;;;;;20.21;42.38;103582.22;7252775;19;154428;-58
2023/02/07 06:04:37;;;;;;;;;;;;;;;20.26;42.25;103587.97;7252818;19;153668;-59
2023/02/07 06:07:04;;;;;;;;;;;;;;;20.31;42.06;103597.38;7250447;19;152726;-59
2023/02/07 06:09:31;;;;;;;;;;;;;;;20.37;42.41;103593.63;7260888;19;153699;-59
2023/02/07 06:11:57;;;;;;;;;;;;;;;20.44;42.39;103601.09;7248856;19;152704;-58
2023/02/07 06:14:24;;;;;;;;;;;;;;;20.49;42.58;103596.44;7252993;19;153064;-58
2023/02/07 06:16:51;;;;;;;;;;;;;;;20.54;41.66;103602.16;7251348;19;153277;-58
2023/02/07 06:19:18;;;;;;;;;;;;;;;20.60;41.78;103609.63;7254696;19;153302;-58
2023/02/07 06:21:45;;;;;;;;;;;;;;;20.66;41.88;103607.81;7252168;19;154121;-58
2023/02/07 06:24:13;;;;;;;;;;;;;;;20.71;41.33;103605.13;7252595;19;153256;-58
2023/02/07 06:26:40;;;;;;;;;;;;;;;20.76;41.93;103608.88;7253773;19;152988;-58
2023/02/07 06:29:07;;;;;;;;;;;;;;;20.81;41.48;103613.75;7253958;19;154134;-58
2023/02/07 06:31:34;;;;;;;;;;;;;;;20.85;41.20;103615.84;7260786;19;153176;-57
2023/02/07 06:34:00;;;;;;;;;;;;;;;20.90;41.67;103615.09;7253177;19;152951;-58
2023/02/07 06:36:27;;;;;;;;;;;;;;;20.97;41.69;103609.34;7250164;19;154047;-57
2023/02/07 06:38:54;;;;;;;;;;;;;;;21.01;41.20;103610.56;7251689;19;153524;-57
2023/02/07 06:41:21;;;;;;;;;;;;;;;21.06;41.10;103607.88;7251303;19;152075;-57
2023/02/07 06:43:48;;;;;;;;;;;;;;;21.12;41.05;103612.53;7250640;19;153421;-58
2023/02/07 06:46:15;;;;;;;;;;;;;;;21.15;41.13;103610.09;7252821;19;153775;-58
2023/02/07 06:48:42;;;;;;;;;;;;;;;21.19;40.73;103607.63;7249252;19;153916;-58
2023/02/07 06:51:09;;;;;;;;;;;;;;;21.22;40.54;103616.41;7252153;19;154460;-58
2023/02/07 06:53:36;;;;;;;;;;;;;;;21.28;40.70;103611.78;7259723;19;152624;-58
2023/02/07 06:56:03;;;;;;;;;;;;;;;21.30;40.23;103613.22;7253259;19;153541;-58
2023/02/07 06:58:30;;;;;;;;;;;;;;;21.35;39.99;103615.28;7253337;19;152135;-58
2023/02/07 07:00:56;;;;;;;;;;;;;;;21.38;40.33;103617.63;7251912;19;154710;-58
2023/02/07 07:03:27;;;;;;;;;;;;;;;21.41;39.74;103616.25;7253000;19;153812;-58
2023/02/07 07:05:54;;;;;;;;;;;;;;;21.43;39.77;103603.66;7251651;19;153370;-57
2023/02/07 07:08:24;;;;;;;;;;;;;;;21.46;40.00;103610.72;7250122;19;154169;-57
2023/02/07 07:10:51;;;;;;;;;;;;;;;21.47;39.72;103613.31;7249044;19;152820;-58
2023/02/07 07:13:18;;;;;;;;;;;;;;;21.50;39.48;103614.75;7251785;19;152886;-58
2023/02/07 07:15:44;;;;;;;;;;;;;;;21.52;39.67;103618.19;7258054;19;154285;-58
2023/02/07 07:18:11;;;;;;;;;;;;;;;21.53;40.42;103619.91;7251552;19;153783;-58
2023/02/07 07:20:38;;;;;;;;;;;;;;;21.54;39.57;103628.06;7249662;19;154818;-58
2023/02/07 07:23:05;;;;;;;;;;;;;;;21.58;39.42;103622.78;7248498;19;153897;-58
2023/02/07 07:25:32;;;;;;;;;;;;;;;21.58;38.81;103625.59;7252390;19;153914;-58
2023/02/07 07:27:59;;;;;;;;;;;;;;;21.56;38.88;103620.25;7250299;19;153966;-58
2023/02/07 07:30:26;;;;;;;;;;;;;;;21.54;39.04;103630.88;7250355;19;154001;-59
2023/02/07 07:32:53;;;;;;;;;;;;;;;21.52;38.77;103633.09;7252995;19;153503;-59
2023/02/07 07:35:20;;;;;;;;;;;;;;;21.44;38.91;103625.03;7248999;19;155488;-57
2023/02/07 07:37:49;;;;;;;;;;;;;;;21.41;37.44;103636.78;7253574;19;153642;-56
2023/02/07 07:40:17;;;;;;;;;;;;;;;21.39;37.43;103641.84;7251149;19;153095;-57
2023/02/07 07:42:44;;;;;;;;;;;;;;;21.28;38.09;103639.88;7248087;19;153471;-57
2023/02/07 07:45:12;;;;;;;;;;;;;;;21.26;37.13;103639.25;7249486;19;154284;-57
2023/02/07 07:47:39;;;;;;;;;;;;;;;21.21;37.38;103645.63;7249004;19;153861;-57
2023/02/07 07:50:08;;;;;;;;;;;;;;;21.20;36.76;103652.38;7252427;19;153943;-56
2023/02/07 07:52:35;;;;;;;;;;;;;;;21.17;36.76;103646.38;7249477;19;154075;-57
2023/02/07 07:55:02;;;;;;;;;;;;;;;21.17;36.81;103646.38;7251068;19;154792;-57
2023/02/07 07:57:29;;;;;;;;;;;;;;;21.19;36.50;103658.25;7256683;19;153438;-57
2023/02/07 07:59:56;;;;;;;;;;;;;;;21.21;36.25;103654.06;7247321;19;154446;-57
2023/02/07 08:02:23;;;;;;;;;;;;;;;21.23;36.51;103663.13;7248550;19;154583;-57
2023/02/07 08:04:50;;;;;;;;;;;;;;;21.24;36.40;103667.66;7250349;19;153784;-57
2023/02/07 08:07:19;;;;;;;;;;;;;;;21.27;36.06;103663.47;7248083;19;153864;-57
2023/02/07 08:09:48;;;;;;;;;;;;;;;21.27;36.19;103663.47;7249811;19;153934;-57
2023/02/07 08:12:15;;;;;;;;;;;;;;;21.28;36.09;103668.88;7250962;19;154406;-57
2023/02/07 08:14:41;;;;;;;;;;;;;;;21.31;35.90;103673.13;7249999;19;153154;-57
2023/02/07 08:17:08;;;;;;;;;;;;;;;21.31;35.67;103667.50;7250387;19;153786;-57
2023/02/07 08:19:37;;;;;;;;;;;;;;;21.32;35.97;103663.59;7259449;19;153115;-57
2023/02/07 08:22:04;;;;;;;;;;;;;;;21.33;35.48;103659.69;7247983;19;153421;-57
2023/02/07 08:24:33;;;;;;;;;;;;;;;21.32;35.48;103666.41;7249774;19;153345;-57
2023/02/07 08:27:00;;;;;;;;;;;;;;;21.33;35.88;103667.28;7249521;19;154723;-57
2023/02/07 08:29:27;;;;;;;;;;;;;;;21.01;33.78;103673.28;7247199;19;153822;-60
2023/02/07 08:31:53;;;;;;;;;;;;;;;20.34;31.55;103674.69;7254627;19;153529;-56
2023/02/07 08:34:25;;;;;;;;;;;;;;;20.60;33.01;103673.38;7260526;19;152645;-57
2023/02/07 08:36:52;;;;;;;;;;;;;;;20.78;33.73;103664.84;7255723;19;153313;-58
2023/02/07 08:39:21;;;;;;;;;;;;;;;20.83;33.93;103671.44;7257558;19;153740;-58
2023/02/07 08:41:48;;;;;;;;;;;;;;;20.86;34.21;103668.13;7263943;19;154319;-56
2023/02/07 08:44:15;;;;;;;;;;;;;;;20.88;34.07;103667.91;7252510;19;153634;-57
2023/02/07 08:46:42;;;;;;;;;;;;;;;20.90;34.64;103673.25;7256052;19;154152;-57
2023/02/07 08:49:09;;;;;;;;;;;;;;;20.86;35.07;103670.94;7251107;19;153941;-57
2023/02/07 08:51:36;;;;;;;;;;;;;;;20.89;34.92;103674.38;7253391;19;152578;-57
2023/02/07 08:54:05;;;;;;;;;;;;;;;20.86;34.91;103676.56;7252302;19;153868;-57
2023/02/07 08:56:32;;;;;;;;;;;;;;;20.84;35.17;103678.78;7252479;19;153058;-57
2023/02/07 08:59:04;;;;;;;;;;;;;;;20.84;35.39;103673.16;7225459;19;155428;-57
2023/02/07 09:01:35;;;;;;;;;;;;;;;20.82;34.92;103666.91;7251368;19;154407;-57
2023/02/07 09:04:01;;;;;;;;;;;;;;;20.79;35.42;103669.38;7263486;19;155072;-57
2023/02/07 09:06:28;;;;;;;;;;;;;;;20.77;35.48;103669.59;7254037;19;153720;-57
2023/02/07 09:08:57;;;;;;;;;;;;;;;20.76;35.07;103676.31;7251202;19;154072;-57
2023/02/07 09:11:24;;;;;;;;;;;;;;;20.77;35.38;103668.75;7251881;19;153348;-58
2023/02/07 09:13:54;;;;;;;;;;;;;;;20.75;35.42;103668.16;7251677;19;153955;-57
2023/02/07 09:16:22;;;;;;;;;;;;;;;20.74;35.32;103666.44;7244767;19;152973;-57
2023/02/07 09:18:52;;;;;;;;;;;;;;;20.73;35.34;103662.75;7253103;19;154271;-57
2023/02/07 09:21:19;;;;;;;;;;;;;;;20.71;35.36;103662.16;7253365;19;152895;-57
2023/02/07 09:23:46;;;;;;;;;;;;;;;20.71;35.18;103666.94;7251044;19;153404;-57
2023/02/07 09:26:16;;;;;;;;;;;;;;;20.70;35.08;103666.06;7262399;19;153333;-57
2023/02/07 09:28:42;;;;;;;;;;;;;;;20.68;35.03;103667.41;7249070;19;152934;-57
2023/02/07 09:31:11;;;;;;;;;;;;;;;20.67;35.24;103676.94;7252649;19;153976;-56
2023/02/07 09:33:38;;;;;;;;;;;;;;;20.66;35.48;103675.22;7253676;19;153782;-57
2023/02/07 09:36:05;;;;;;;;;;;;;;;20.62;35.49;103677.69;7252608;19;153611;-57
2023/02/07 09:38:32;;;;;;;;;;;;;;;20.63;35.30;103689.75;7252205;19;154161;-57
2023/02/07 09:40:59;;;;;;;;;;;;;;;20.59;35.59;103680.94;7254227;19;153249;-56
2023/02/07 09:43:26;;;;;;;;;;;;;;;20.60;35.39;103687.44;7251662;19;154137;-58
2023/02/07 09:46:01;;;;;;;;;;;;;;;20.58;35.44;103696.09;7261350;19;153155;-58
2023/02/07 09:48:36;;;;;;;;;;;;;;;20.53;35.74;103690.38;7249131;19;154052;-58
2023/02/07 09:51:04;;;;;;;;;;;;;;;20.51;35.65;103689.72;7252591;19;153383;-58
2023/02/07 09:53:34;;;;;;;;;;;;;;;20.50;35.35;103689.97;7250326;19;155744;-58
2023/02/07 09:56:01;;;;;;;;;;;;;;;20.48;35.51;103692.19;7252947;19;153910;-59
2023/02/07 09:58:31;;;;;;;;;;;;;;;20.45;35.64;103690.69;7253826;19;153484;-59
2023/02/07 10:01:01;;;;;;;;;;;;;;;20.42;35.62;103680.81;7248205;19;154240;-58
2023/02/07 10:03:28;;;;;;;;;;;;;;;20.43;35.81;103692.91;7249607;19;154234;-58
2023/02/07 10:05:58;;;;;;;;;;;;;;;20.38;35.72;103690.81;7253512;19;153659;-58
2023/02/07 10:08:42;;;;;;;;;;;;;;;20.33;36.03;103693.47;7256389;19;153555;-58
2023/02/07 10:11:13;;;;;;;;;;;;;;;20.34;35.72;103694.34;7251296;19;154772;-58
2023/02/07 10:13:44;;;;;;;;;;;;;;;20.31;35.78;103700.41;7252402;19;154657;-58
2023/02/07 10:16:14;;;;;;;;;;;;;;;20.26;36.14;103703.09;7249329;19;154095;-58
2023/02/07 10:18:42;;;;;;;;;;;;;;;20.26;35.78;103694.66;7253808;19;153086;-58
2023/02/07 10:21:10;;;;;;;;;;;;;;;20.23;35.77;103700.75;7253014;19;153986;-58
2023/02/07 10:23:38;;;;;;;;;;;;;;;20.21;35.73;103706.63;7251923;19;154186;-58
2023/02/07 10:26:09;;;;;;;;;;;;;;;20.19;36.18;103699.50;7253682;19;153731;-58
2023/02/07 10:28:37;;;;;;;;;;;;;;;20.15;36.25;103698.28;7253407;19;153005;-58
2023/02/07 10:31:10;;;;;;;;;;;;;;;20.18;35.75;103703.41;7261551;19;154105;-58
2023/02/07 10:33:39;;;;;;;;;;;;;;;20.15;35.75;103704.75;7254074;19;154259;-58
2023/02/07 10:36:14;;;;;;;;;;;;;;;20.14;36.10;103690.94;7250765;19;155059;-58
2023/02/07 10:38:47;;;;;;;;;;;;;;;20.11;35.90;103702.66;7250081;19;154065;-58
2023/02/07 10:41:28;;;;;;;;;;;;;;;20.09;36.28;103685.19;7252988;19;154523;-59
2023/02/07 10:43:55;;;;;;;;;;;;;;;20.05;35.89;103683.94;7251119;19;153501;-58
2023/02/07 10:46:22;;;;;;;;;;;;;;;20.04;36.24;103693.47;7250440;19;153187;-58
2023/02/07 10:48:49;;;;;;;;;;;;;;;20.02;35.94;103696.53;7251486;19;153566;-58
2023/02/07 10:51:19;;;;;;;;;;;;;;;20.05;36.37;103700.78;7249935;19;155780;-58
2023/02/07 10:53:47;;;;;;;;;;;;;;;20.10;36.71;103707.41;7258778;19;153514;-58
2023/02/07 10:56:24;;;;;;;;;;;;;;;20.05;36.39;103704.47;7244594;19;153353;-58
2023/02/07 10:58:53;;;;;;;;;;;;;;;20.07;36.53;103699.47;7250570;19;154442;-57
2023/02/07 11:01:21;;;;;;;;;;;;;;;20.06;36.84;103694.09;7249369;19;153366;-57
2023/02/07 11:03:48;;;;;;;;;;;;;;;20.04;36.85;103699.94;7249395;19;154149;-57
2023/02/07 11:06:22;;;;;;;;;;;;;;;20.02;36.34;103702.13;7252513;19;154463;-58
2023/02/07 11:08:49;;;;;;;;;;;;;;;20.02;36.55;103702.13;7247908;19;153282;-57
2023/02/07 11:11:17;;;;;;;;;;;;;;;20.04;36.76;103697.13;7248127;19;153340;-57
2023/02/07 11:13:48;;;;;;;;;;;;;;;19.98;36.73;103689.69;7245639;19;151982;-57
2023/02/07 11:16:22;;;;;;;;;;;;;;;19.99;37.04;103691.38;7255284;19;153944;-57
2023/02/07 11:18:52;;;;;;;;;;;;;;;19.96;36.58;103692.72;7249677;19;153334;-57
2023/02/07 11:21:19;;;;;;;;;;;;;;;19.99;36.58;103694.19;7246279;19;152177;-57
2023/02/07 11:23:49;;;;;;;;;;;;;;;19.96;36.48;103687.09;7246167;19;153805;-57
2023/02/07 11:26:18;;;;;;;;;;;;;;;19.95;36.54;103693.81;7249746;19;152936;-57
2023/02/07 11:28:45;;;;;;;;;;;;;;;19.96;36.50;103692.72;7250803;19;155137;-57
2023/02/07 11:31:16;;;;;;;;;;;;;;;19.94;36.69;103689.28;7252738;19;154018;-57
2023/02/07 11:33:44;;;;;;;;;;;;;;;19.92;36.40;103685.88;7251899;19;153565;-57
2023/02/07 11:36:19;;;;;;;;;;;;;;;19.90;36.78;103688.03;7250293;19;154138;-57
2023/02/07 11:38:48;;;;;;;;;;;;;;;19.89;36.79;103677.94;7255525;19;155982;-56
2023/02/07 11:41:17;;;;;;;;;;;;;;;19.91;36.77;103678.53;7250447;19;152053;-56
2023/02/07 11:43:46;;;;;;;;;;;;;;;19.91;36.74;103672.06;7248554;19;154862;-57
2023/02/07 11:46:14;;;;;;;;;;;;;;;19.90;36.77;103671.22;7248890;19;152772;-56
2023/02/07 11:48:41;;;;;;;;;;;;;;;19.90;36.87;103670.34;7250295;19;154802;-56
2023/02/07 11:51:14;;;;;;;;;;;;;;;19.85;36.77;103664.63;7250807;19;154340;-56
2023/02/07 11:53:44;;;;;;;;;;;;;;;19.87;36.67;103663.28;7249974;19;152766;-57
2023/02/07 11:56:23;;;;;;;;;;;;;;;19.85;36.52;103676.66;7250131;19;152449;-57
2023/02/07 11:58:51;;;;;;;;;;;;;;;19.86;36.50;103663.50;7257577;19;154306;-57
2023/02/07 12:01:22;;;;;;;;;;;;;;;19.84;36.56;103665.72;7251240;19;153740;-57
2023/02/07 12:03:51;;;;;;;;;;;;;;;19.84;36.51;103660.09;7250685;19;153730;-57
2023/02/07 12:06:23;;;;;;;;;;;;;;;19.80;36.67;103654.13;7257658;19;153746;-57
2023/02/07 12:08:51;;;;;;;;;;;;;;;19.81;36.64;103644.56;7256091;19;153971;-56
2023/02/07 12:11:21;;;;;;;;;;;;;;;19.81;36.52;103640.91;7255328;19;153813;-56
2023/02/07 12:13:51;;;;;;;;;;;;;;;19.79;36.58;103635.56;7256383;19;153722;-56
2023/02/07 12:16:21;;;;;;;;;;;;;;;19.77;36.98;103639.69;7256101;19;154618;-57
2023/02/07 12:18:52;;;;;;;;;;;;;;;19.77;36.67;103629.31;7254643;19;154292;-57
2023/02/07 12:21:22;;;;;;;;;;;;;;;19.76;36.52;103629.56;7262317;19;153446;-57
2023/02/07 12:23:53;;;;;;;;;;;;;;;19.78;36.60;103628.22;7254761;19;153720;-56
2023/02/07 12:26:23;;;;;;;;;;;;;;;19.74;36.77;103626.13;7257115;19;153095;-58
2023/02/07 12:28:56;;;;;;;;;;;;;;;19.75;36.91;103623.09;7254558;19;154191;-57
2023/02/07 12:31:41;;;;;;;;;;;;;;;19.74;36.87;103617.72;7257400;19;153330;-57
2023/02/07 12:34:11;;;;;;;;;;;;;;;19.73;36.79;103608.44;7260195;19;153545;-57
2023/02/07 12:36:42;;;;;;;;;;;;;;;19.70;36.70;103620.16;7252543;19;154019;-57